sensor_id;sensor_type;location;lat;lon;timestamp;P1;durP1;ratioP1;P2;durP2;ratioP2
71715;SDS011;59568;52.128;5.434;2024-02-04T00:00:19;5.00;;;3.00;;
71715;SDS011;59568;52.128;5.434;2024-02-04T00:02:46;8.80;;;3.67;;
71715;SDS011;59568;52.128;5.434;2024-02-04T00:05:13;5.95;;;2.95;;
71715;SDS011;59568;52.128;5.434;2024-02-04T00:07:40;3.65;;;2.38;;
71715;SDS011;59568;52.128;5.434;2024-02-04T00:10:07;4.07;;;2.50;;
71715;SDS011;59568;52.128;5.434;2024-02-04T00:12:34;4.85;;;2.55;;
71715;SDS011;59568;52.128;5.434;2024-02-04T00:15:01;4.70;;;2.20;;
71715;SDS011;59568;52.128;5.434;2024-02-04T00:17:31;4.38;;;1.77;;
71715;SDS011;59568;52.128;5.434;2024-02-04T00:20:00;2.72;;;1.20;;
71715;SDS011;59568;52.128;5.434;2024-02-04T00:22:27;2.83;;;1.47;;
71715;SDS011;59568;52.128;5.434;2024-02-04T00:24:54;4.53;;;2.22;;
71715;SDS011;59568;52.128;5.434;2024-02-04T00:27:22;4.13;;;2.15;;
71715;SDS011;59568;52.128;5.434;2024-02-04T00:29:49;7.90;;;2.53;;
71715;SDS011;59568;52.128;5.434;2024-02-04T00:32:16;5.55;;;2.35;;
71715;SDS011;59568;52.128;5.434;2024-02-04T00:34:43;6.57;;;2.30;;
71715;SDS011;59568;52.128;5.434;2024-02-04T00:37:10;6.00;;;2.35;;
71715;SDS011;59568;52.128;5.434;2024-02-04T00:39:37;4.70;;;2.10;;
71715;SDS011;59568;52.128;5.434;2024-02-04T00:42:04;9.32;;;2.00;;
71715;SDS011;59568;52.128;5.434;2024-02-04T00:44:31;8.57;;;2.40;;
71715;SDS011;59568;52.128;5.434;2024-02-04T00:46:58;5.70;;;1.97;;
71715;SDS011;59568;52.128;5.434;2024-02-04T00:49:25;6.30;;;2.25;;
71715;SDS011;59568;52.128;5.434;2024-02-04T00:51:53;6.47;;;2.53;;
71715;SDS011;59568;52.128;5.434;2024-02-04T00:54:20;5.40;;;2.03;;
71715;SDS011;59568;52.128;5.434;2024-02-04T00:56:47;7.68;;;2.97;;
71715;SDS011;59568;52.128;5.434;2024-02-04T00:59:14;7.37;;;3.50;;
71715;SDS011;59568;52.128;5.434;2024-02-04T01:01:41;10.77;;;3.63;;
71715;SDS011;59568;52.128;5.434;2024-02-04T01:04:09;13.93;;;4.18;;
71715;SDS011;59568;52.128;5.434;2024-02-04T01:06:37;11.30;;;3.95;;
71715;SDS011;59568;52.128;5.434;2024-02-04T01:09:22;18.08;;;4.50;;
71715;SDS011;59568;52.128;5.434;2024-02-04T01:11:48;12.80;;;4.30;;
71715;SDS011;59568;52.128;5.434;2024-02-04T01:14:15;13.77;;;5.20;;
71715;SDS011;59568;52.128;5.434;2024-02-04T01:16:42;12.82;;;4.28;;
71715;SDS011;59568;52.128;5.434;2024-02-04T01:19:09;16.70;;;4.20;;
71715;SDS011;59568;52.128;5.434;2024-02-04T01:21:36;13.35;;;3.90;;
71715;SDS011;59568;52.128;5.434;2024-02-04T01:24:03;13.97;;;4.07;;
71715;SDS011;59568;52.128;5.434;2024-02-04T01:26:30;9.98;;;3.75;;
71715;SDS011;59568;52.128;5.434;2024-02-04T01:28:57;9.80;;;3.83;;
71715;SDS011;59568;52.128;5.434;2024-02-04T01:31:24;14.30;;;4.18;;
71715;SDS011;59568;52.128;5.434;2024-02-04T01:33:51;15.88;;;5.50;;
71715;SDS011;59568;52.128;5.434;2024-02-04T01:36:18;9.60;;;3.90;;
71715;SDS011;59568;52.128;5.434;2024-02-04T01:38:45;15.57;;;4.10;;
71715;SDS011;59568;52.128;5.434;2024-02-04T01:41:12;9.68;;;3.53;;
71715;SDS011;59568;52.128;5.434;2024-02-04T01:43:39;13.77;;;4.15;;
71715;SDS011;59568;52.128;5.434;2024-02-04T01:46:06;12.18;;;4.15;;
71715;SDS011;59568;52.128;5.434;2024-02-04T01:48:34;8.60;;;3.37;;
71715;SDS011;59568;52.128;5.434;2024-02-04T01:51:03;13.88;;;3.83;;
71715;SDS011;59568;52.128;5.434;2024-02-04T01:53:31;11.88;;;4.30;;
71715;SDS011;59568;52.128;5.434;2024-02-04T01:56:00;9.60;;;3.78;;
71715;SDS011;59568;52.128;5.434;2024-02-04T01:58:28;12.68;;;3.58;;
71715;SDS011;59568;52.128;5.434;2024-02-04T02:00:55;14.10;;;4.10;;
71715;SDS011;59568;52.128;5.434;2024-02-04T02:03:23;13.45;;;3.55;;
71715;SDS011;59568;52.128;5.434;2024-02-04T02:05:51;14.30;;;3.95;;
71715;SDS011;59568;52.128;5.434;2024-02-04T02:08:18;10.60;;;3.97;;
71715;SDS011;59568;52.128;5.434;2024-02-04T02:10:46;14.27;;;4.22;;
71715;SDS011;59568;52.128;5.434;2024-02-04T02:13:16;14.40;;;3.70;;
71715;SDS011;59568;52.128;5.434;2024-02-04T02:15:54;11.25;;;4.50;;
71715;SDS011;59568;52.128;5.434;2024-02-04T02:18:31;15.18;;;4.05;;
71715;SDS011;59568;52.128;5.434;2024-02-04T02:21:26;9.70;;;4.28;;
71715;SDS011;59568;52.128;5.434;2024-02-04T02:26:50;9.53;;;3.57;;
71715;SDS011;59568;52.128;5.434;2024-02-04T02:29:17;10.35;;;3.97;;
71715;SDS011;59568;52.128;5.434;2024-02-04T02:31:44;11.88;;;4.05;;
71715;SDS011;59568;52.128;5.434;2024-02-04T02:34:14;18.58;;;4.38;;
71715;SDS011;59568;52.128;5.434;2024-02-04T02:37:16;12.60;;;3.70;;
71715;SDS011;59568;52.128;5.434;2024-02-04T02:42:25;9.63;;;4.03;;
71715;SDS011;59568;52.128;5.434;2024-02-04T02:44:55;8.43;;;3.53;;
71715;SDS011;59568;52.128;5.434;2024-02-04T02:47:23;9.48;;;3.47;;
71715;SDS011;59568;52.128;5.434;2024-02-04T02:49:51;8.30;;;3.40;;
71715;SDS011;59568;52.128;5.434;2024-02-04T02:52:20;14.50;;;3.90;;
71715;SDS011;59568;52.128;5.434;2024-02-04T02:54:47;11.77;;;3.80;;
71715;SDS011;59568;52.128;5.434;2024-02-04T02:57:14;11.15;;;4.43;;
71715;SDS011;59568;52.128;5.434;2024-02-04T02:59:41;11.77;;;3.83;;
71715;SDS011;59568;52.128;5.434;2024-02-04T03:02:08;9.18;;;3.65;;
71715;SDS011;59568;52.128;5.434;2024-02-04T03:04:35;9.53;;;3.60;;
71715;SDS011;59568;52.128;5.434;2024-02-04T03:07:03;11.25;;;3.58;;
71715;SDS011;59568;52.128;5.434;2024-02-04T03:09:30;9.25;;;3.63;;
71715;SDS011;59568;52.128;5.434;2024-02-04T03:11:57;18.67;;;4.88;;
71715;SDS011;59568;52.128;5.434;2024-02-04T03:14:24;11.75;;;4.13;;
71715;SDS011;59568;52.128;5.434;2024-02-04T03:16:51;13.47;;;4.70;;
71715;SDS011;59568;52.128;5.434;2024-02-04T03:19:20;10.60;;;3.72;;
71715;SDS011;59568;52.128;5.434;2024-02-04T03:21:47;11.98;;;4.18;;
71715;SDS011;59568;52.128;5.434;2024-02-04T03:24:15;10.82;;;4.45;;
71715;SDS011;59568;52.128;5.434;2024-02-04T03:26:42;10.48;;;3.83;;
71715;SDS011;59568;52.128;5.434;2024-02-04T03:29:09;11.47;;;3.70;;
71715;SDS011;59568;52.128;5.434;2024-02-04T03:31:35;17.88;;;4.13;;
71715;SDS011;59568;52.128;5.434;2024-02-04T03:34:02;8.27;;;3.67;;
71715;SDS011;59568;52.128;5.434;2024-02-04T03:36:30;12.00;;;3.65;;
71715;SDS011;59568;52.128;5.434;2024-02-04T03:38:57;6.57;;;2.97;;
71715;SDS011;59568;52.128;5.434;2024-02-04T03:41:24;7.93;;;2.93;;
71715;SDS011;59568;52.128;5.434;2024-02-04T03:43:51;7.72;;;2.97;;
71715;SDS011;59568;52.128;5.434;2024-02-04T03:46:18;10.23;;;2.55;;
71715;SDS011;59568;52.128;5.434;2024-02-04T03:48:45;7.75;;;2.05;;
71715;SDS011;59568;52.128;5.434;2024-02-04T03:51:16;5.72;;;1.88;;
71715;SDS011;59568;52.128;5.434;2024-02-04T03:53:44;4.87;;;2.13;;
71715;SDS011;59568;52.128;5.434;2024-02-04T03:56:12;9.43;;;1.83;;
71715;SDS011;59568;52.128;5.434;2024-02-04T03:58:39;9.05;;;1.75;;
71715;SDS011;59568;52.128;5.434;2024-02-04T04:01:09;7.43;;;1.35;;
71715;SDS011;59568;52.128;5.434;2024-02-04T04:03:41;4.50;;;1.15;;
71715;SDS011;59568;52.128;5.434;2024-02-04T04:06:08;6.13;;;1.50;;
71715;SDS011;59568;52.128;5.434;2024-02-04T04:08:37;4.70;;;1.20;;
71715;SDS011;59568;52.128;5.434;2024-02-04T04:11:05;3.90;;;1.17;;
71715;SDS011;59568;52.128;5.434;2024-02-04T04:13:33;3.70;;;1.20;;
71715;SDS011;59568;52.128;5.434;2024-02-04T04:16:02;2.65;;;1.00;;
71715;SDS011;59568;52.128;5.434;2024-02-04T04:18:30;7.97;;;1.43;;
71715;SDS011;59568;52.128;5.434;2024-02-04T04:20:57;9.70;;;1.13;;
71715;SDS011;59568;52.128;5.434;2024-02-04T04:23:24;6.47;;;1.25;;
71715;SDS011;59568;52.128;5.434;2024-02-04T04:25:51;7.38;;;1.70;;
71715;SDS011;59568;52.128;5.434;2024-02-04T04:28:18;6.68;;;1.60;;
71715;SDS011;59568;52.128;5.434;2024-02-04T04:30:45;6.57;;;1.50;;
71715;SDS011;59568;52.128;5.434;2024-02-04T04:33:12;5.32;;;1.15;;
71715;SDS011;59568;52.128;5.434;2024-02-04T04:35:39;5.88;;;1.55;;
71715;SDS011;59568;52.128;5.434;2024-02-04T04:38:06;7.10;;;1.50;;
71715;SDS011;59568;52.128;5.434;2024-02-04T04:40:33;10.02;;;1.95;;
71715;SDS011;59568;52.128;5.434;2024-02-04T04:43:00;6.00;;;1.60;;
71715;SDS011;59568;52.128;5.434;2024-02-04T04:45:27;10.98;;;2.40;;
71715;SDS011;59568;52.128;5.434;2024-02-04T04:47:54;8.68;;;2.45;;
71715;SDS011;59568;52.128;5.434;2024-02-04T04:50:21;4.30;;;1.83;;
71715;SDS011;59568;52.128;5.434;2024-02-04T04:52:48;7.43;;;1.88;;
71715;SDS011;59568;52.128;5.434;2024-02-04T04:55:16;6.80;;;2.03;;
71715;SDS011;59568;52.128;5.434;2024-02-04T04:57:43;9.00;;;2.35;;
71715;SDS011;59568;52.128;5.434;2024-02-04T05:00:10;6.65;;;2.13;;
71715;SDS011;59568;52.128;5.434;2024-02-04T05:02:42;7.15;;;2.40;;
71715;SDS011;59568;52.128;5.434;2024-02-04T05:05:13;11.48;;;1.52;;
71715;SDS011;59568;52.128;5.434;2024-02-04T05:07:40;7.60;;;1.47;;
71715;SDS011;59568;52.128;5.434;2024-02-04T05:10:08;8.25;;;1.58;;
71715;SDS011;59568;52.128;5.434;2024-02-04T05:12:35;8.63;;;1.45;;
71715;SDS011;59568;52.128;5.434;2024-02-04T05:15:03;10.40;;;1.48;;
71715;SDS011;59568;52.128;5.434;2024-02-04T05:17:31;2.92;;;1.45;;
71715;SDS011;59568;52.128;5.434;2024-02-04T05:20:00;7.30;;;1.67;;
71715;SDS011;59568;52.128;5.434;2024-02-04T05:22:27;10.80;;;2.03;;
71715;SDS011;59568;52.128;5.434;2024-02-04T05:24:54;7.63;;;2.25;;
71715;SDS011;59568;52.128;5.434;2024-02-04T05:27:21;8.95;;;1.92;;
71715;SDS011;59568;52.128;5.434;2024-02-04T05:29:48;7.13;;;1.95;;
71715;SDS011;59568;52.128;5.434;2024-02-04T05:32:14;10.37;;;2.20;;
71715;SDS011;59568;52.128;5.434;2024-02-04T05:34:41;9.32;;;2.58;;
71715;SDS011;59568;52.128;5.434;2024-02-04T05:37:08;6.80;;;2.00;;
71715;SDS011;59568;52.128;5.434;2024-02-04T05:39:35;10.13;;;2.45;;
71715;SDS011;59568;52.128;5.434;2024-02-04T05:42:02;9.57;;;2.28;;
71715;SDS011;59568;52.128;5.434;2024-02-04T05:44:30;9.43;;;2.87;;
71715;SDS011;59568;52.128;5.434;2024-02-04T05:46:56;5.15;;;2.13;;
71715;SDS011;59568;52.128;5.434;2024-02-04T05:49:23;9.43;;;2.10;;
71715;SDS011;59568;52.128;5.434;2024-02-04T05:51:50;5.45;;;1.98;;
71715;SDS011;59568;52.128;5.434;2024-02-04T05:54:17;5.22;;;2.33;;
71715;SDS011;59568;52.128;5.434;2024-02-04T05:56:44;12.23;;;2.47;;
71715;SDS011;59568;52.128;5.434;2024-02-04T05:59:11;8.02;;;2.45;;
71715;SDS011;59568;52.128;5.434;2024-02-04T06:01:38;5.57;;;1.80;;
71715;SDS011;59568;52.128;5.434;2024-02-04T06:04:05;6.28;;;2.00;;
71715;SDS011;59568;52.128;5.434;2024-02-04T06:06:32;7.90;;;2.08;;
71715;SDS011;59568;52.128;5.434;2024-02-04T06:08:59;5.40;;;1.80;;
71715;SDS011;59568;52.128;5.434;2024-02-04T06:11:26;8.63;;;2.53;;
71715;SDS011;59568;52.128;5.434;2024-02-04T06:13:53;8.95;;;1.95;;
71715;SDS011;59568;52.128;5.434;2024-02-04T06:16:20;6.45;;;1.90;;
71715;SDS011;59568;52.128;5.434;2024-02-04T06:18:47;8.38;;;2.55;;
71715;SDS011;59568;52.128;5.434;2024-02-04T06:21:14;5.87;;;2.33;;
71715;SDS011;59568;52.128;5.434;2024-02-04T06:23:41;5.68;;;2.53;;
71715;SDS011;59568;52.128;5.434;2024-02-04T06:26:08;7.72;;;2.47;;
71715;SDS011;59568;52.128;5.434;2024-02-04T06:28:35;7.18;;;2.33;;
71715;SDS011;59568;52.128;5.434;2024-02-04T06:31:02;6.28;;;2.28;;
71715;SDS011;59568;52.128;5.434;2024-02-04T06:33:29;6.67;;;2.20;;
71715;SDS011;59568;52.128;5.434;2024-02-04T06:35:56;5.80;;;2.55;;
71715;SDS011;59568;52.128;5.434;2024-02-04T06:38:22;11.48;;;3.58;;
71715;SDS011;59568;52.128;5.434;2024-02-04T06:40:49;6.63;;;3.42;;
71715;SDS011;59568;52.128;5.434;2024-02-04T06:43:16;9.85;;;3.90;;
71715;SDS011;59568;52.128;5.434;2024-02-04T06:45:43;9.40;;;3.60;;
71715;SDS011;59568;52.128;5.434;2024-02-04T06:48:10;8.93;;;3.88;;
71715;SDS011;59568;52.128;5.434;2024-02-04T06:50:38;7.43;;;3.53;;
71715;SDS011;59568;52.128;5.434;2024-02-04T06:53:05;9.93;;;4.40;;
71715;SDS011;59568;52.128;5.434;2024-02-04T06:55:32;11.43;;;3.88;;
71715;SDS011;59568;52.128;5.434;2024-02-04T06:57:59;11.27;;;3.93;;
71715;SDS011;59568;52.128;5.434;2024-02-04T07:00:26;10.93;;;4.57;;
71715;SDS011;59568;52.128;5.434;2024-02-04T07:02:52;13.15;;;4.28;;
71715;SDS011;59568;52.128;5.434;2024-02-04T07:05:19;12.73;;;4.97;;
71715;SDS011;59568;52.128;5.434;2024-02-04T07:07:49;15.13;;;4.82;;
71715;SDS011;59568;52.128;5.434;2024-02-04T07:10:16;11.30;;;4.80;;
71715;SDS011;59568;52.128;5.434;2024-02-04T07:12:43;17.58;;;5.05;;
71715;SDS011;59568;52.128;5.434;2024-02-04T07:15:11;9.55;;;5.00;;
71715;SDS011;59568;52.128;5.434;2024-02-04T07:17:37;11.52;;;4.85;;
71715;SDS011;59568;52.128;5.434;2024-02-04T07:20:04;12.73;;;5.78;;
71715;SDS011;59568;52.128;5.434;2024-02-04T07:22:32;13.33;;;4.77;;
71715;SDS011;59568;52.128;5.434;2024-02-04T07:25:03;10.27;;;4.70;;
71715;SDS011;59568;52.128;5.434;2024-02-04T07:27:31;8.93;;;4.10;;
71715;SDS011;59568;52.128;5.434;2024-02-04T07:29:58;13.50;;;5.00;;
71715;SDS011;59568;52.128;5.434;2024-02-04T07:32:25;12.93;;;4.97;;
71715;SDS011;59568;52.128;5.434;2024-02-04T07:34:52;12.03;;;4.80;;
71715;SDS011;59568;52.128;5.434;2024-02-04T07:37:19;16.30;;;5.32;;
71715;SDS011;59568;52.128;5.434;2024-02-04T07:39:46;9.52;;;4.68;;
71715;SDS011;59568;52.128;5.434;2024-02-04T07:42:13;11.25;;;4.53;;
71715;SDS011;59568;52.128;5.434;2024-02-04T07:44:40;8.73;;;4.03;;
71715;SDS011;59568;52.128;5.434;2024-02-04T07:47:06;7.33;;;4.07;;
71715;SDS011;59568;52.128;5.434;2024-02-04T07:49:33;11.07;;;4.65;;
71715;SDS011;59568;52.128;5.434;2024-02-04T07:52:00;8.73;;;3.83;;
71715;SDS011;59568;52.128;5.434;2024-02-04T07:54:27;9.20;;;4.15;;
71715;SDS011;59568;52.128;5.434;2024-02-04T07:56:54;10.07;;;3.60;;
71715;SDS011;59568;52.128;5.434;2024-02-04T07:59:21;6.47;;;3.00;;
71715;SDS011;59568;52.128;5.434;2024-02-04T08:01:48;9.73;;;3.08;;
71715;SDS011;59568;52.128;5.434;2024-02-04T08:04:15;8.65;;;3.22;;
71715;SDS011;59568;52.128;5.434;2024-02-04T08:06:43;8.90;;;2.55;;
71715;SDS011;59568;52.128;5.434;2024-02-04T08:09:10;7.32;;;2.17;;
71715;SDS011;59568;52.128;5.434;2024-02-04T08:11:38;4.43;;;1.53;;
71715;SDS011;59568;52.128;5.434;2024-02-04T08:14:05;5.90;;;2.15;;
71715;SDS011;59568;52.128;5.434;2024-02-04T08:16:32;5.05;;;2.00;;
71715;SDS011;59568;52.128;5.434;2024-02-04T08:18:59;6.47;;;1.88;;
71715;SDS011;59568;52.128;5.434;2024-02-04T08:21:26;6.35;;;2.25;;
71715;SDS011;59568;52.128;5.434;2024-02-04T08:23:53;4.13;;;1.70;;
71715;SDS011;59568;52.128;5.434;2024-02-04T08:26:20;6.55;;;1.50;;
71715;SDS011;59568;52.128;5.434;2024-02-04T08:28:47;4.43;;;1.80;;
71715;SDS011;59568;52.128;5.434;2024-02-04T08:31:14;5.45;;;1.77;;
71715;SDS011;59568;52.128;5.434;2024-02-04T08:33:41;8.57;;;1.65;;
71715;SDS011;59568;52.128;5.434;2024-02-04T08:36:08;5.40;;;1.47;;
71715;SDS011;59568;52.128;5.434;2024-02-04T08:38:37;6.38;;;1.42;;
71715;SDS011;59568;52.128;5.434;2024-02-04T08:41:04;4.13;;;1.30;;
71715;SDS011;59568;52.128;5.434;2024-02-04T08:43:31;4.60;;;1.27;;
71715;SDS011;59568;52.128;5.434;2024-02-04T08:45:58;4.43;;;1.27;;
71715;SDS011;59568;52.128;5.434;2024-02-04T08:48:36;4.73;;;0.80;;
71715;SDS011;59568;52.128;5.434;2024-02-04T08:51:03;3.17;;;1.10;;
71715;SDS011;59568;52.128;5.434;2024-02-04T08:53:31;5.13;;;1.23;;
71715;SDS011;59568;52.128;5.434;2024-02-04T08:55:58;3.95;;;1.30;;
71715;SDS011;59568;52.128;5.434;2024-02-04T08:58:24;7.45;;;1.63;;
71715;SDS011;59568;52.128;5.434;2024-02-04T09:00:51;4.97;;;1.73;;
71715;SDS011;59568;52.128;5.434;2024-02-04T09:03:18;4.82;;;2.08;;
71715;SDS011;59568;52.128;5.434;2024-02-04T09:05:45;4.63;;;2.55;;
71715;SDS011;59568;52.128;5.434;2024-02-04T09:08:12;7.43;;;2.50;;
71715;SDS011;59568;52.128;5.434;2024-02-04T09:10:39;9.32;;;2.78;;
71715;SDS011;59568;52.128;5.434;2024-02-04T09:13:07;6.10;;;3.50;;
71715;SDS011;59568;52.128;5.434;2024-02-04T09:15:34;7.60;;;3.10;;
71715;SDS011;59568;52.128;5.434;2024-02-04T09:18:01;7.15;;;3.35;;
71715;SDS011;59568;52.128;5.434;2024-02-04T09:20:29;9.10;;;3.58;;
71715;SDS011;59568;52.128;5.434;2024-02-04T09:22:56;12.02;;;3.50;;
71715;SDS011;59568;52.128;5.434;2024-02-04T09:25:24;11.33;;;3.47;;
71715;SDS011;59568;52.128;5.434;2024-02-04T09:27:52;7.25;;;2.70;;
71715;SDS011;59568;52.128;5.434;2024-02-04T09:30:19;9.00;;;2.92;;
71715;SDS011;59568;52.128;5.434;2024-02-04T09:32:46;4.75;;;2.63;;
71715;SDS011;59568;52.128;5.434;2024-02-04T09:35:14;9.65;;;2.40;;
71715;SDS011;59568;52.128;5.434;2024-02-04T09:37:42;7.27;;;2.50;;
71715;SDS011;59568;52.128;5.434;2024-02-04T09:40:09;8.43;;;2.30;;
71715;SDS011;59568;52.128;5.434;2024-02-04T09:42:37;4.93;;;2.20;;
71715;SDS011;59568;52.128;5.434;2024-02-04T09:45:05;6.63;;;2.38;;
71715;SDS011;59568;52.128;5.434;2024-02-04T09:47:32;5.18;;;1.70;;
71715;SDS011;59568;52.128;5.434;2024-02-04T09:50:01;6.60;;;2.00;;
71715;SDS011;59568;52.128;5.434;2024-02-04T09:52:29;7.45;;;1.65;;
71715;SDS011;59568;52.128;5.434;2024-02-04T09:55:01;6.68;;;1.65;;
71715;SDS011;59568;52.128;5.434;2024-02-04T09:57:33;6.30;;;1.42;;
71715;SDS011;59568;52.128;5.434;2024-02-04T10:00:04;4.93;;;1.52;;
71715;SDS011;59568;52.128;5.434;2024-02-04T10:02:35;4.00;;;1.20;;
71715;SDS011;59568;52.128;5.434;2024-02-04T10:05:03;8.45;;;1.33;;
71715;SDS011;59568;52.128;5.434;2024-02-04T10:07:30;5.20;;;0.90;;
71715;SDS011;59568;52.128;5.434;2024-02-04T10:09:58;3.78;;;1.08;;
71715;SDS011;59568;52.128;5.434;2024-02-04T10:12:25;6.53;;;1.20;;
71715;SDS011;59568;52.128;5.434;2024-02-04T10:14:52;3.23;;;0.70;;
71715;SDS011;59568;52.128;5.434;2024-02-04T10:17:19;5.85;;;1.10;;
71715;SDS011;59568;52.128;5.434;2024-02-04T10:19:49;2.38;;;0.90;;
71715;SDS011;59568;52.128;5.434;2024-02-04T10:22:16;2.25;;;0.65;;
71715;SDS011;59568;52.128;5.434;2024-02-04T10:24:44;3.08;;;0.80;;
71715;SDS011;59568;52.128;5.434;2024-02-04T10:27:14;4.10;;;0.70;;
71715;SDS011;59568;52.128;5.434;2024-02-04T10:29:55;3.97;;;0.85;;
71715;SDS011;59568;52.128;5.434;2024-02-04T10:32:23;2.03;;;0.70;;
71715;SDS011;59568;52.128;5.434;2024-02-04T10:34:51;4.85;;;0.88;;
71715;SDS011;59568;52.128;5.434;2024-02-04T10:37:18;6.90;;;1.27;;
71715;SDS011;59568;52.128;5.434;2024-02-04T10:39:45;1.97;;;0.80;;
71715;SDS011;59568;52.128;5.434;2024-02-04T10:42:13;2.88;;;0.50;;
71715;SDS011;59568;52.128;5.434;2024-02-04T10:44:42;1.52;;;0.40;;
71715;SDS011;59568;52.128;5.434;2024-02-04T10:47:15;1.23;;;0.40;;
71715;SDS011;59568;52.128;5.434;2024-02-04T10:49:50;1.40;;;0.38;;
71715;SDS011;59568;52.128;5.434;2024-02-04T10:52:20;1.80;;;0.57;;
71715;SDS011;59568;52.128;5.434;2024-02-04T10:54:49;1.42;;;0.30;;
71715;SDS011;59568;52.128;5.434;2024-02-04T10:57:19;2.33;;;0.40;;
71715;SDS011;59568;52.128;5.434;2024-02-04T10:59:52;0.85;;;0.30;;
71715;SDS011;59568;52.128;5.434;2024-02-04T11:02:20;1.73;;;0.30;;
71715;SDS011;59568;52.128;5.434;2024-02-04T11:04:49;1.80;;;0.40;;
71715;SDS011;59568;52.128;5.434;2024-02-04T11:07:17;1.70;;;0.43;;
71715;SDS011;59568;52.128;5.434;2024-02-04T11:09:47;1.13;;;0.30;;
71715;SDS011;59568;52.128;5.434;2024-02-04T11:12:17;1.35;;;0.40;;
71715;SDS011;59568;52.128;5.434;2024-02-04T11:14:46;1.33;;;0.50;;
71715;SDS011;59568;52.128;5.434;2024-02-04T11:27:59;0.90;;;0.30;;
71715;SDS011;59568;52.128;5.434;2024-02-04T11:30:27;0.70;;;0.30;;
71715;SDS011;59568;52.128;5.434;2024-02-04T11:32:54;1.13;;;0.35;;
71715;SDS011;59568;52.128;5.434;2024-02-04T11:35:21;0.52;;;0.30;;
71715;SDS011;59568;52.128;5.434;2024-02-04T11:37:49;1.77;;;0.40;;
71715;SDS011;59568;52.128;5.434;2024-02-04T11:40:17;1.15;;;0.55;;
71715;SDS011;59568;52.128;5.434;2024-02-04T11:42:46;2.80;;;0.50;;
71715;SDS011;59568;52.128;5.434;2024-02-04T11:45:13;1.20;;;0.52;;
71715;SDS011;59568;52.128;5.434;2024-02-04T11:47:41;2.88;;;0.60;;
71715;SDS011;59568;52.128;5.434;2024-02-04T11:50:08;1.70;;;0.60;;
71715;SDS011;59568;52.128;5.434;2024-02-04T11:52:38;3.47;;;0.75;;
71715;SDS011;59568;52.128;5.434;2024-02-04T11:55:12;1.87;;;0.67;;
71715;SDS011;59568;52.128;5.434;2024-02-04T11:57:40;3.75;;;0.70;;
71715;SDS011;59568;52.128;5.434;2024-02-04T12:00:07;2.30;;;0.90;;
71715;SDS011;59568;52.128;5.434;2024-02-04T12:02:37;3.85;;;0.90;;
71715;SDS011;59568;52.128;5.434;2024-02-04T12:05:05;3.22;;;0.95;;
71715;SDS011;59568;52.128;5.434;2024-02-04T12:07:33;2.20;;;0.93;;
71715;SDS011;59568;52.128;5.434;2024-02-04T12:10:00;4.30;;;1.38;;
71715;SDS011;59568;52.128;5.434;2024-02-04T12:12:28;2.50;;;1.08;;
71715;SDS011;59568;52.128;5.434;2024-02-04T12:14:57;4.60;;;1.50;;
71715;SDS011;59568;52.128;5.434;2024-02-04T12:17:24;3.38;;;1.50;;
71715;SDS011;59568;52.128;5.434;2024-02-04T12:19:52;5.80;;;1.27;;
71715;SDS011;59568;52.128;5.434;2024-02-04T12:22:20;4.70;;;1.17;;
71715;SDS011;59568;52.128;5.434;2024-02-04T12:24:49;3.25;;;1.00;;
71715;SDS011;59568;52.128;5.434;2024-02-04T12:27:16;4.55;;;1.27;;
71715;SDS011;59568;52.128;5.434;2024-02-04T12:29:43;4.85;;;1.50;;
71715;SDS011;59568;52.128;5.434;2024-02-04T12:32:13;4.47;;;1.30;;
71715;SDS011;59568;52.128;5.434;2024-02-04T12:34:40;3.85;;;1.00;;
71715;SDS011;59568;52.128;5.434;2024-02-04T12:37:08;4.95;;;1.05;;
71715;SDS011;59568;52.128;5.434;2024-02-04T12:39:37;4.03;;;0.90;;
71715;SDS011;59568;52.128;5.434;2024-02-04T12:42:04;3.45;;;0.65;;
71715;SDS011;59568;52.128;5.434;2024-02-04T12:44:32;2.70;;;0.50;;
71715;SDS011;59568;52.128;5.434;2024-02-04T12:46:59;2.55;;;0.70;;
71715;SDS011;59568;52.128;5.434;2024-02-04T12:49:25;4.47;;;1.17;;
71715;SDS011;59568;52.128;5.434;2024-02-04T12:52:03;2.45;;;0.60;;
71715;SDS011;59568;52.128;5.434;2024-02-04T12:54:42;6.55;;;0.77;;
71715;SDS011;59568;52.128;5.434;2024-02-04T12:57:10;4.57;;;0.60;;
71715;SDS011;59568;52.128;5.434;2024-02-04T12:59:52;1.67;;;0.73;;
71715;SDS011;59568;52.128;5.434;2024-02-04T13:02:19;3.50;;;0.73;;
71715;SDS011;59568;52.128;5.434;2024-02-04T13:04:47;7.03;;;1.35;;
71715;SDS011;59568;52.128;5.434;2024-02-04T13:07:15;5.45;;;0.77;;
71715;SDS011;59568;52.128;5.434;2024-02-04T13:09:45;4.37;;;0.60;;
71715;SDS011;59568;52.128;5.434;2024-02-04T13:12:14;2.78;;;0.73;;
71715;SDS011;59568;52.128;5.434;2024-02-04T13:14:41;2.00;;;0.57;;
71715;SDS011;59568;52.128;5.434;2024-02-04T13:17:09;2.70;;;0.80;;
71715;SDS011;59568;52.128;5.434;2024-02-04T13:19:37;3.17;;;0.68;;
71715;SDS011;59568;52.128;5.434;2024-02-04T13:22:06;1.43;;;0.53;;
71715;SDS011;59568;52.128;5.434;2024-02-04T13:24:33;2.55;;;0.75;;
71715;SDS011;59568;52.128;5.434;2024-02-04T13:27:01;4.00;;;0.90;;
71715;SDS011;59568;52.128;5.434;2024-02-04T13:29:36;1.85;;;0.60;;
71715;SDS011;59568;52.128;5.434;2024-02-04T13:32:04;2.63;;;0.73;;
71715;SDS011;59568;52.128;5.434;2024-02-04T13:34:31;4.87;;;0.80;;
71715;SDS011;59568;52.128;5.434;2024-02-04T13:36:59;2.20;;;0.57;;
71715;SDS011;59568;52.128;5.434;2024-02-04T13:39:26;5.35;;;0.80;;
71715;SDS011;59568;52.128;5.434;2024-02-04T13:41:53;3.50;;;0.80;;
71715;SDS011;59568;52.128;5.434;2024-02-04T13:44:20;3.88;;;0.70;;
71715;SDS011;59568;52.128;5.434;2024-02-04T13:46:47;4.67;;;0.60;;
71715;SDS011;59568;52.128;5.434;2024-02-04T13:49:14;4.35;;;1.20;;
71715;SDS011;59568;52.128;5.434;2024-02-04T13:51:41;3.28;;;0.82;;
71715;SDS011;59568;52.128;5.434;2024-02-04T13:54:11;4.30;;;1.23;;
71715;SDS011;59568;52.128;5.434;2024-02-04T13:56:44;10.00;;;1.77;;
71715;SDS011;59568;52.128;5.434;2024-02-04T13:59:13;7.37;;;1.00;;
71715;SDS011;59568;52.128;5.434;2024-02-04T14:01:40;3.10;;;1.35;;
71715;SDS011;59568;52.128;5.434;2024-02-04T14:04:07;6.45;;;1.38;;
71715;SDS011;59568;52.128;5.434;2024-02-04T14:06:35;5.65;;;1.90;;
71715;SDS011;59568;52.128;5.434;2024-02-04T14:09:02;6.65;;;1.67;;
71715;SDS011;59568;52.128;5.434;2024-02-04T14:11:30;6.60;;;1.80;;
71715;SDS011;59568;52.128;5.434;2024-02-04T14:13:57;6.07;;;2.05;;
71715;SDS011;59568;52.128;5.434;2024-02-04T14:16:24;5.93;;;1.85;;
71715;SDS011;59568;52.128;5.434;2024-02-04T14:18:51;7.35;;;2.10;;
71715;SDS011;59568;52.128;5.434;2024-02-04T14:21:21;7.75;;;1.98;;
71715;SDS011;59568;52.128;5.434;2024-02-04T14:23:49;3.33;;;2.10;;
71715;SDS011;59568;52.128;5.434;2024-02-04T14:26:16;4.88;;;1.70;;
71715;SDS011;59568;52.128;5.434;2024-02-04T14:28:44;6.05;;;2.15;;
71715;SDS011;59568;52.128;5.434;2024-02-04T14:31:11;7.47;;;2.58;;
71715;SDS011;59568;52.128;5.434;2024-02-04T14:33:39;4.07;;;1.95;;
71715;SDS011;59568;52.128;5.434;2024-02-04T14:36:07;7.37;;;2.30;;
71715;SDS011;59568;52.128;5.434;2024-02-04T14:38:34;4.72;;;1.95;;
71715;SDS011;59568;52.128;5.434;2024-02-04T14:41:04;6.93;;;1.95;;
71715;SDS011;59568;52.128;5.434;2024-02-04T14:43:32;7.65;;;1.67;;
71715;SDS011;59568;52.128;5.434;2024-02-04T14:45:59;6.40;;;1.83;;
71715;SDS011;59568;52.128;5.434;2024-02-04T14:48:27;4.90;;;1.67;;
71715;SDS011;59568;52.128;5.434;2024-02-04T14:50:54;4.13;;;1.70;;
71715;SDS011;59568;52.128;5.434;2024-02-04T14:53:23;7.20;;;1.50;;
71715;SDS011;59568;52.128;5.434;2024-02-04T14:55:52;6.43;;;1.52;;
71715;SDS011;59568;52.128;5.434;2024-02-04T14:58:19;4.88;;;1.55;;
71715;SDS011;59568;52.128;5.434;2024-02-04T15:00:47;4.20;;;1.30;;
71715;SDS011;59568;52.128;5.434;2024-02-04T15:03:14;12.40;;;2.28;;
71715;SDS011;59568;52.128;5.434;2024-02-04T15:05:41;4.40;;;1.30;;